Terminal Aerodrome Forecast
Issued by NWS

Home | Current Version | Previous Version | Graphics & Text | Print | Product List | Glossary On
Versions: 1 2 3 4 5 6 7 8 9 10 11 12 13 14 15 16 17 18 19 20 21
182
FTUS43 KFGF 260458 AAA
TAFBJI
TAF AMD
KBJI 260458Z 2605/2624 29018G28KT P6SM -RA SCT015 BKN025
     FM260700 29017KT P6SM VCSH BKN040
     FM260900 29016KT P6SM BKN025
     FM261600 30018G26KT P6SM BKN025
     FM261800 30019G28KT P6SM BKN035=

USA.gov is the U.S. government's official web portal to all federal, state and local government web resources and services.